Aérodrome :
LOGIN :

S'inscrire | Disclaimer

   EN    FR    IT 

 










Légende :    VFR   VFR Marginal   IFR   IFR Intensif   IFR Très Intensif
Visi : 
Plafond : 
>= 8 km
>= 3000ft
5 à 8 km
1000 à 3000 ft
1500m à 5 km
500 à 1000 ft
800 à 1500m
200 à 500 ft
< 800m
< 200 ft
Symboles :   Orages  Brouillard  Fortes neiges  Fortes précipitations  Vent > 20 kt
SIGMETs :   Divers  Orages  Givrage  Turbulence  Onde Orograph.  Cendres Volcan.






- Altitude de l'aérodrome : 574 ft
- Code IATA : TEQ


LTBU - Corlu

DERNIER METAR :
  • 121020Z 09005KT 040V120 CAVOK 23/12 Q1018 RMK RWY22 10005KT 030V180

METARs EXPIRÉS :
  • 120950Z 11005KT 050V140 CAVOK 22/13 Q1018 RMK RWY22 VRB04KT
  • 120920Z 06005KT 030V100 CAVOK 21/13 Q1019 RMK RWY22 11005KT 060V170
  • 120850Z 07005KT CAVOK 21/13 Q1019 RMK RWY22 10004KT 040V150
  • 120820Z 06007KT 8000 NSC 20/13 Q1019 RMK RWY22 09004KT 040V160
  • 120750Z 09006KT 060V130 8000 NSC 19/13 Q1019

TAF TAF LTBU
Valide du 12 à 06h jusqu'au 13 à 06h UTC


120440Z 1206/1306 VRB02KT CAVOK



MET'MAP, la Météo Aéronautique d'un coup d'oeil ! - Copyright ORBIFLY Décembre 2007 - Disclaimer

ORBIFLY MET'MAP TEAM :

Programmation & Développement : Alexandra Zaïnal
Conception & Développement : Baudouin d'Aumeries
Co-Programmation & Développement : Marc-Olivier Méhu
Soutien technique & logistique : Manuel Goepfert

Contact : metmap@orbifly.com




SOURCES & CREDITS :

   NOAA